sensor_id;sensor_type;location;lat;lon;timestamp;temperature;humidity
26049;DHT22;13822;51.568;5.086;2023-05-07T00:02:19;14.80;99.90
26049;DHT22;13822;51.568;5.086;2023-05-07T00:07:35;14.70;99.90
26049;DHT22;13822;51.568;5.086;2023-05-07T00:12:48;14.70;99.90
26049;DHT22;13822;51.568;5.086;2023-05-07T00:18:42;14.70;99.90
26049;DHT22;13822;51.568;5.086;2023-05-07T00:24:08;14.70;99.90
26049;DHT22;13822;51.568;5.086;2023-05-07T00:35:18;14.70;99.90
26049;DHT22;13822;51.568;5.086;2023-05-07T00:40:32;14.70;99.90
26049;DHT22;13822;51.568;5.086;2023-05-07T00:46:18;14.70;99.90
26049;DHT22;13822;51.568;5.086;2023-05-07T01:15:36;14.70;99.90
26049;DHT22;13822;51.568;5.086;2023-05-07T01:21:35;14.70;99.90
26049;DHT22;13822;51.568;5.086;2023-05-07T01:26:51;14.80;99.90
26049;DHT22;13822;51.568;5.086;2023-05-07T01:32:19;14.80;99.90
26049;DHT22;13822;51.568;5.086;2023-05-07T01:38:00;14.80;99.90
26049;DHT22;13822;51.568;5.086;2023-05-07T01:43:23;14.70;99.90
26049;DHT22;13822;51.568;5.086;2023-05-07T01:49:10;14.60;99.90
26049;DHT22;13822;51.568;5.086;2023-05-07T01:54:15;14.60;99.90
26049;DHT22;13822;51.568;5.086;2023-05-07T01:59:39;14.50;99.90
26049;DHT22;13822;51.568;5.086;2023-05-07T02:05:02;14.50;99.90
26049;DHT22;13822;51.568;5.086;2023-05-07T02:10:19;14.50;99.90
26049;DHT22;13822;51.568;5.086;2023-05-07T02:15:34;14.50;99.90
26049;DHT22;13822;51.568;5.086;2023-05-07T02:20:37;14.50;99.90
26049;DHT22;13822;51.568;5.086;2023-05-07T02:26:05;14.50;99.90
26049;DHT22;13822;51.568;5.086;2023-05-07T02:31:21;14.50;99.90
26049;DHT22;13822;51.568;5.086;2023-05-07T02:37:02;14.50;99.90
26049;DHT22;13822;51.568;5.086;2023-05-07T02:42:57;14.40;99.90
26049;DHT22;13822;51.568;5.086;2023-05-07T02:48:11;14.50;99.90
26049;DHT22;13822;51.568;5.086;2023-05-07T02:53:40;14.50;99.90
26049;DHT22;13822;51.568;5.086;2023-05-07T02:58:55;14.50;99.90
26049;DHT22;13822;51.568;5.086;2023-05-07T03:04:03;14.40;99.90
26049;DHT22;13822;51.568;5.086;2023-05-07T03:09:06;14.50;99.90
26049;DHT22;13822;51.568;5.086;2023-05-07T03:14:17;14.50;99.90
26049;DHT22;13822;51.568;5.086;2023-05-07T03:19:29;14.40;99.90
26049;DHT22;13822;51.568;5.086;2023-05-07T03:24:43;14.40;99.90
26049;DHT22;13822;51.568;5.086;2023-05-07T03:30:03;14.40;99.90
26049;DHT22;13822;51.568;5.086;2023-05-07T03:35:20;14.30;99.90
26049;DHT22;13822;51.568;5.086;2023-05-07T03:40:37;14.30;99.90
26049;DHT22;13822;51.568;5.086;2023-05-07T03:45:48;14.30;99.90
26049;DHT22;13822;51.568;5.086;2023-05-07T03:51:01;14.30;99.90
26049;DHT22;13822;51.568;5.086;2023-05-07T03:56:18;14.40;99.90
26049;DHT22;13822;51.568;5.086;2023-05-07T04:01:54;14.40;99.90
26049;DHT22;13822;51.568;5.086;2023-05-07T04:07:10;14.50;99.90
26049;DHT22;13822;51.568;5.086;2023-05-07T04:12:40;14.50;99.90
26049;DHT22;13822;51.568;5.086;2023-05-07T04:17:58;14.30;99.90
26049;DHT22;13822;51.568;5.086;2023-05-07T04:23:27;14.40;99.90
26049;DHT22;13822;51.568;5.086;2023-05-07T04:28:55;14.40;99.90
26049;DHT22;13822;51.568;5.086;2023-05-07T04:34:31;14.40;99.90
26049;DHT22;13822;51.568;5.086;2023-05-07T04:39:37;14.50;99.90
26049;DHT22;13822;51.568;5.086;2023-05-07T04:44:56;14.50;99.90
26049;DHT22;13822;51.568;5.086;2023-05-07T04:50:36;14.40;99.90
26049;DHT22;13822;51.568;5.086;2023-05-07T04:56:04;14.40;99.90
26049;DHT22;13822;51.568;5.086;2023-05-07T05:01:40;14.40;99.90
26049;DHT22;13822;51.568;5.086;2023-05-07T05:06:52;14.50;99.90
26049;DHT22;13822;51.568;5.086;2023-05-07T05:11:59;14.50;99.90
26049;DHT22;13822;51.568;5.086;2023-05-07T05:17:21;14.50;99.90
26049;DHT22;13822;51.568;5.086;2023-05-07T05:22:24;14.60;99.90
26049;DHT22;13822;51.568;5.086;2023-05-07T05:27:27;14.60;99.90
26049;DHT22;13822;51.568;5.086;2023-05-07T05:32:30;14.70;99.90
26049;DHT22;13822;51.568;5.086;2023-05-07T05:37:32;14.70;99.90
26049;DHT22;13822;51.568;5.086;2023-05-07T05:42:34;14.70;99.90
26049;DHT22;13822;51.568;5.086;2023-05-07T05:47:36;14.80;99.90
26049;DHT22;13822;51.568;5.086;2023-05-07T05:52:39;14.80;99.90
26049;DHT22;13822;51.568;5.086;2023-05-07T05:57:42;14.90;99.90
26049;DHT22;13822;51.568;5.086;2023-05-07T06:02:44;14.90;99.90
26049;DHT22;13822;51.568;5.086;2023-05-07T06:07:46;15.00;99.90
26049;DHT22;13822;51.568;5.086;2023-05-07T06:12:48;15.10;99.90
26049;DHT22;13822;51.568;5.086;2023-05-07T06:17:50;15.20;99.90
26049;DHT22;13822;51.568;5.086;2023-05-07T06:22:51;15.20;99.90
26049;DHT22;13822;51.568;5.086;2023-05-07T06:27:53;15.30;99.90
26049;DHT22;13822;51.568;5.086;2023-05-07T06:32:55;15.30;99.90
26049;DHT22;13822;51.568;5.086;2023-05-07T06:37:57;15.40;99.90
26049;DHT22;13822;51.568;5.086;2023-05-07T06:43:01;15.40;99.90
26049;DHT22;13822;51.568;5.086;2023-05-07T06:48:03;15.50;99.90
26049;DHT22;13822;51.568;5.086;2023-05-07T06:53:05;15.60;99.90
26049;DHT22;13822;51.568;5.086;2023-05-07T06:58:07;15.60;99.90
26049;DHT22;13822;51.568;5.086;2023-05-07T07:03:09;15.60;99.90
26049;DHT22;13822;51.568;5.086;2023-05-07T07:08:11;15.70;99.90
26049;DHT22;13822;51.568;5.086;2023-05-07T07:13:13;15.70;99.90
26049;DHT22;13822;51.568;5.086;2023-05-07T07:18:15;15.80;99.90
26049;DHT22;13822;51.568;5.086;2023-05-07T07:23:17;15.80;99.90
26049;DHT22;13822;51.568;5.086;2023-05-07T07:28:20;15.90;99.90
26049;DHT22;13822;51.568;5.086;2023-05-07T07:33:23;16.10;99.90
26049;DHT22;13822;51.568;5.086;2023-05-07T07:38:24;16.20;99.90
26049;DHT22;13822;51.568;5.086;2023-05-07T07:43:26;16.30;99.90
26049;DHT22;13822;51.568;5.086;2023-05-07T07:48:29;16.30;99.90
26049;DHT22;13822;51.568;5.086;2023-05-07T07:53:31;16.40;99.90
26049;DHT22;13822;51.568;5.086;2023-05-07T07:58:33;16.50;99.90
26049;DHT22;13822;51.568;5.086;2023-05-07T08:03:37;16.60;99.90
26049;DHT22;13822;51.568;5.086;2023-05-07T08:08:39;16.80;99.90
26049;DHT22;13822;51.568;5.086;2023-05-07T08:13:41;16.90;99.90
26049;DHT22;13822;51.568;5.086;2023-05-07T08:18:43;17.00;99.90
26049;DHT22;13822;51.568;5.086;2023-05-07T08:23:45;17.20;99.90
26049;DHT22;13822;51.568;5.086;2023-05-07T08:28:47;17.30;99.90
26049;DHT22;13822;51.568;5.086;2023-05-07T08:33:49;17.40;99.90
26049;DHT22;13822;51.568;5.086;2023-05-07T08:38:52;17.50;99.90
26049;DHT22;13822;51.568;5.086;2023-05-07T08:43:54;17.40;99.90
26049;DHT22;13822;51.568;5.086;2023-05-07T08:48:57;17.40;99.90
26049;DHT22;13822;51.568;5.086;2023-05-07T08:53:59;17.40;99.90
26049;DHT22;13822;51.568;5.086;2023-05-07T08:59:01;17.50;99.90
26049;DHT22;13822;51.568;5.086;2023-05-07T09:04:02;17.60;99.90
26049;DHT22;13822;51.568;5.086;2023-05-07T09:09:05;17.80;99.90
26049;DHT22;13822;51.568;5.086;2023-05-07T09:14:07;17.90;99.90
26049;DHT22;13822;51.568;5.086;2023-05-07T09:19:10;17.90;99.90
26049;DHT22;13822;51.568;5.086;2023-05-07T09:24:14;18.00;99.90
26049;DHT22;13822;51.568;5.086;2023-05-07T09:29:17;18.20;99.90
26049;DHT22;13822;51.568;5.086;2023-05-07T09:34:19;18.30;99.90
26049;DHT22;13822;51.568;5.086;2023-05-07T09:39:21;18.40;99.90
26049;DHT22;13822;51.568;5.086;2023-05-07T09:44:24;18.60;99.90
26049;DHT22;13822;51.568;5.086;2023-05-07T09:49:28;18.70;99.90
26049;DHT22;13822;51.568;5.086;2023-05-07T09:54:35;18.80;99.90
26049;DHT22;13822;51.568;5.086;2023-05-07T09:59:39;18.80;99.90
26049;DHT22;13822;51.568;5.086;2023-05-07T10:04:44;18.90;99.90
26049;DHT22;13822;51.568;5.086;2023-05-07T10:09:47;18.90;99.90
26049;DHT22;13822;51.568;5.086;2023-05-07T10:14:50;18.90;99.90
26049;DHT22;13822;51.568;5.086;2023-05-07T10:19:51;18.80;99.90
26049;DHT22;13822;51.568;5.086;2023-05-07T10:24:54;18.90;99.90
26049;DHT22;13822;51.568;5.086;2023-05-07T10:35:29;19.10;99.90
26049;DHT22;13822;51.568;5.086;2023-05-07T10:40:33;19.10;99.90
26049;DHT22;13822;51.568;5.086;2023-05-07T10:45:35;19.30;99.90
26049;DHT22;13822;51.568;5.086;2023-05-07T10:50:38;19.50;99.90
26049;DHT22;13822;51.568;5.086;2023-05-07T10:55:40;19.70;99.90
26049;DHT22;13822;51.568;5.086;2023-05-07T11:00:42;19.90;99.90
26049;DHT22;13822;51.568;5.086;2023-05-07T11:05:45;19.90;99.90
26049;DHT22;13822;51.568;5.086;2023-05-07T11:10:54;19.90;99.90
26049;DHT22;13822;51.568;5.086;2023-05-07T11:15:57;20.00;99.90
26049;DHT22;13822;51.568;5.086;2023-05-07T11:21:00;20.10;99.90
26049;DHT22;13822;51.568;5.086;2023-05-07T11:26:06;20.20;99.90
26049;DHT22;13822;51.568;5.086;2023-05-07T11:31:09;20.30;99.90
26049;DHT22;13822;51.568;5.086;2023-05-07T11:36:12;20.50;99.90
26049;DHT22;13822;51.568;5.086;2023-05-07T11:41:14;20.60;99.90
26049;DHT22;13822;51.568;5.086;2023-05-07T11:46:18;20.60;99.90
26049;DHT22;13822;51.568;5.086;2023-05-07T11:51:20;20.60;99.90
26049;DHT22;13822;51.568;5.086;2023-05-07T11:56:23;20.70;99.90
26049;DHT22;13822;51.568;5.086;2023-05-07T12:01:25;20.70;99.90
26049;DHT22;13822;51.568;5.086;2023-05-07T12:06:27;20.70;99.90
26049;DHT22;13822;51.568;5.086;2023-05-07T12:11:29;20.70;99.90
26049;DHT22;13822;51.568;5.086;2023-05-07T12:16:31;20.80;99.90
26049;DHT22;13822;51.568;5.086;2023-05-07T12:21:33;20.90;99.90
26049;DHT22;13822;51.568;5.086;2023-05-07T12:26:37;20.80;99.90
26049;DHT22;13822;51.568;5.086;2023-05-07T12:31:41;20.80;99.90
26049;DHT22;13822;51.568;5.086;2023-05-07T12:36:43;20.70;99.90
26049;DHT22;13822;51.568;5.086;2023-05-07T12:41:53;20.70;99.90
26049;DHT22;13822;51.568;5.086;2023-05-07T12:46:56;20.70;99.90
26049;DHT22;13822;51.568;5.086;2023-05-07T12:51:58;20.70;99.90
26049;DHT22;13822;51.568;5.086;2023-05-07T12:57:01;20.80;99.90
26049;DHT22;13822;51.568;5.086;2023-05-07T13:02:10;20.80;99.90
26049;DHT22;13822;51.568;5.086;2023-05-07T13:07:12;20.70;99.90
26049;DHT22;13822;51.568;5.086;2023-05-07T13:12:14;20.60;99.90
26049;DHT22;13822;51.568;5.086;2023-05-07T13:17:16;20.60;99.90
26049;DHT22;13822;51.568;5.086;2023-05-07T13:22:17;20.50;99.90
26049;DHT22;13822;51.568;5.086;2023-05-07T13:27:19;20.40;99.90
26049;DHT22;13822;51.568;5.086;2023-05-07T13:32:21;20.30;99.90
26049;DHT22;13822;51.568;5.086;2023-05-07T13:37:24;20.30;99.90
26049;DHT22;13822;51.568;5.086;2023-05-07T13:42:25;20.30;99.90
26049;DHT22;13822;51.568;5.086;2023-05-07T13:47:27;20.10;99.90
26049;DHT22;13822;51.568;5.086;2023-05-07T13:52:29;19.90;99.90
26049;DHT22;13822;51.568;5.086;2023-05-07T13:57:31;19.80;99.90
26049;DHT22;13822;51.568;5.086;2023-05-07T14:02:33;19.80;99.90
26049;DHT22;13822;51.568;5.086;2023-05-07T14:07:35;19.90;99.90
26049;DHT22;13822;51.568;5.086;2023-05-07T14:12:37;19.90;99.90
26049;DHT22;13822;51.568;5.086;2023-05-07T14:17:39;19.80;99.90
26049;DHT22;13822;51.568;5.086;2023-05-07T14:22:41;19.80;99.90
26049;DHT22;13822;51.568;5.086;2023-05-07T14:27:43;19.90;99.90
26049;DHT22;13822;51.568;5.086;2023-05-07T14:32:45;20.00;99.90
26049;DHT22;13822;51.568;5.086;2023-05-07T14:37:47;20.00;99.90
26049;DHT22;13822;51.568;5.086;2023-05-07T14:42:49;20.10;99.90
26049;DHT22;13822;51.568;5.086;2023-05-07T14:47:51;20.20;99.90
26049;DHT22;13822;51.568;5.086;2023-05-07T14:52:52;20.40;99.90
26049;DHT22;13822;51.568;5.086;2023-05-07T14:57:55;20.50;99.90
26049;DHT22;13822;51.568;5.086;2023-05-07T15:02:59;20.70;99.90
26049;DHT22;13822;51.568;5.086;2023-05-07T15:08:07;20.80;99.90
26049;DHT22;13822;51.568;5.086;2023-05-07T15:13:09;21.00;99.90
26049;DHT22;13822;51.568;5.086;2023-05-07T15:18:16;21.10;99.90
26049;DHT22;13822;51.568;5.086;2023-05-07T15:23:18;21.20;99.90
26049;DHT22;13822;51.568;5.086;2023-05-07T15:28:20;21.00;99.90
26049;DHT22;13822;51.568;5.086;2023-05-07T15:33:23;20.70;99.90
26049;DHT22;13822;51.568;5.086;2023-05-07T15:38:25;20.50;99.90
26049;DHT22;13822;51.568;5.086;2023-05-07T15:43:28;20.30;99.90
26049;DHT22;13822;51.568;5.086;2023-05-07T15:48:29;20.10;99.90
26049;DHT22;13822;51.568;5.086;2023-05-07T15:53:32;19.90;99.90
26049;DHT22;13822;51.568;5.086;2023-05-07T15:58:35;19.70;99.90
26049;DHT22;13822;51.568;5.086;2023-05-07T16:03:37;19.50;99.90
26049;DHT22;13822;51.568;5.086;2023-05-07T16:08:40;19.30;99.90
26049;DHT22;13822;51.568;5.086;2023-05-07T16:13:44;19.10;99.90
26049;DHT22;13822;51.568;5.086;2023-05-07T16:18:46;18.90;99.90
26049;DHT22;13822;51.568;5.086;2023-05-07T16:23:48;18.90;99.90
26049;DHT22;13822;51.568;5.086;2023-05-07T16:28:51;18.80;99.90
26049;DHT22;13822;51.568;5.086;2023-05-07T16:33:53;18.70;99.90
26049;DHT22;13822;51.568;5.086;2023-05-07T16:38:55;18.60;99.90
26049;DHT22;13822;51.568;5.086;2023-05-07T16:43:56;18.50;99.90
26049;DHT22;13822;51.568;5.086;2023-05-07T16:48:59;18.40;99.90
26049;DHT22;13822;51.568;5.086;2023-05-07T16:54:01;18.40;99.90
26049;DHT22;13822;51.568;5.086;2023-05-07T16:59:02;18.30;99.90
26049;DHT22;13822;51.568;5.086;2023-05-07T17:04:04;18.20;99.90
26049;DHT22;13822;51.568;5.086;2023-05-07T17:09:06;18.20;99.90
26049;DHT22;13822;51.568;5.086;2023-05-07T17:14:09;18.20;99.90
26049;DHT22;13822;51.568;5.086;2023-05-07T17:19:12;18.10;99.90
26049;DHT22;13822;51.568;5.086;2023-05-07T17:24:14;18.10;99.90
26049;DHT22;13822;51.568;5.086;2023-05-07T17:29:15;18.10;99.90
26049;DHT22;13822;51.568;5.086;2023-05-07T17:34:17;18.00;99.90
26049;DHT22;13822;51.568;5.086;2023-05-07T17:39:19;18.00;99.90
26049;DHT22;13822;51.568;5.086;2023-05-07T17:44:21;17.90;99.90
26049;DHT22;13822;51.568;5.086;2023-05-07T17:49:23;17.90;99.90
26049;DHT22;13822;51.568;5.086;2023-05-07T17:54:25;17.90;99.90
26049;DHT22;13822;51.568;5.086;2023-05-07T17:59:28;17.90;99.90
26049;DHT22;13822;51.568;5.086;2023-05-07T18:04:30;17.80;99.90
26049;DHT22;13822;51.568;5.086;2023-05-07T18:09:32;17.70;99.90
26049;DHT22;13822;51.568;5.086;2023-05-07T18:14:34;17.70;99.90
26049;DHT22;13822;51.568;5.086;2023-05-07T18:19:36;17.70;99.90
26049;DHT22;13822;51.568;5.086;2023-05-07T18:24:38;17.60;99.90
26049;DHT22;13822;51.568;5.086;2023-05-07T18:29:40;17.50;99.90
26049;DHT22;13822;51.568;5.086;2023-05-07T18:34:42;17.50;99.90
26049;DHT22;13822;51.568;5.086;2023-05-07T18:39:44;17.50;99.90
26049;DHT22;13822;51.568;5.086;2023-05-07T18:44:46;17.40;99.90
26049;DHT22;13822;51.568;5.086;2023-05-07T18:49:48;17.40;99.90
26049;DHT22;13822;51.568;5.086;2023-05-07T18:54:50;17.40;99.90
26049;DHT22;13822;51.568;5.086;2023-05-07T18:59:52;17.40;99.90
26049;DHT22;13822;51.568;5.086;2023-05-07T19:04:55;17.30;99.90
26049;DHT22;13822;51.568;5.086;2023-05-07T19:09:57;17.30;99.90
26049;DHT22;13822;51.568;5.086;2023-05-07T19:15:06;17.20;99.90
26049;DHT22;13822;51.568;5.086;2023-05-07T19:20:09;17.20;99.90
26049;DHT22;13822;51.568;5.086;2023-05-07T19:25:28;17.20;99.90
26049;DHT22;13822;51.568;5.086;2023-05-07T19:30:31;17.20;99.90
26049;DHT22;13822;51.568;5.086;2023-05-07T19:35:40;17.20;99.90
26049;DHT22;13822;51.568;5.086;2023-05-07T19:41:03;17.20;99.90
26049;DHT22;13822;51.568;5.086;2023-05-07T19:46:12;17.10;99.90
26049;DHT22;13822;51.568;5.086;2023-05-07T19:51:15;17.10;99.90
26049;DHT22;13822;51.568;5.086;2023-05-07T19:56:27;17.00;99.90
26049;DHT22;13822;51.568;5.086;2023-05-07T20:01:35;17.00;99.90
26049;DHT22;13822;51.568;5.086;2023-05-07T20:06:40;16.90;99.90
26049;DHT22;13822;51.568;5.086;2023-05-07T20:11:53;17.00;99.90
26049;DHT22;13822;51.568;5.086;2023-05-07T20:17:03;16.90;99.90
26049;DHT22;13822;51.568;5.086;2023-05-07T20:22:17;17.00;99.90
26049;DHT22;13822;51.568;5.086;2023-05-07T20:27:21;17.00;99.90
26049;DHT22;13822;51.568;5.086;2023-05-07T20:32:32;17.00;99.90
26049;DHT22;13822;51.568;5.086;2023-05-07T20:38:01;16.90;99.90
26049;DHT22;13822;51.568;5.086;2023-05-07T20:43:15;16.90;99.90
26049;DHT22;13822;51.568;5.086;2023-05-07T20:48:33;16.80;99.90
26049;DHT22;13822;51.568;5.086;2023-05-07T20:54:15;16.80;99.90
26049;DHT22;13822;51.568;5.086;2023-05-07T20:59:38;16.80;99.90
26049;DHT22;13822;51.568;5.086;2023-05-07T21:05:16;16.80;99.90
26049;DHT22;13822;51.568;5.086;2023-05-07T21:10:18;16.80;99.90
26049;DHT22;13822;51.568;5.086;2023-05-07T21:15:31;16.70;99.90
26049;DHT22;13822;51.568;5.086;2023-05-07T21:20:36;16.70;99.90
26049;DHT22;13822;51.568;5.086;2023-05-07T21:25:45;16.70;99.90
26049;DHT22;13822;51.568;5.086;2023-05-07T21:31:17;16.60;99.90
26049;DHT22;13822;51.568;5.086;2023-05-07T21:36:26;16.60;99.90
26049;DHT22;13822;51.568;5.086;2023-05-07T21:41:43;16.60;99.90
26049;DHT22;13822;51.568;5.086;2023-05-07T21:47:15;16.60;99.90
26049;DHT22;13822;51.568;5.086;2023-05-07T21:52:41;16.50;99.90
26049;DHT22;13822;51.568;5.086;2023-05-07T21:57:50;16.50;99.90
26049;DHT22;13822;51.568;5.086;2023-05-07T22:03:06;16.50;99.90
26049;DHT22;13822;51.568;5.086;2023-05-07T22:08:22;16.50;99.90
26049;DHT22;13822;51.568;5.086;2023-05-07T22:13:38;16.50;99.90
26049;DHT22;13822;51.568;5.086;2023-05-07T22:18:50;16.50;99.90
26049;DHT22;13822;51.568;5.086;2023-05-07T22:23:56;16.50;99.90
26049;DHT22;13822;51.568;5.086;2023-05-07T22:29:17;16.50;99.90
26049;DHT22;13822;51.568;5.086;2023-05-07T22:34:30;16.50;99.90
26049;DHT22;13822;51.568;5.086;2023-05-07T22:39:49;16.50;99.90
26049;DHT22;13822;51.568;5.086;2023-05-07T22:45:05;16.40;99.90
26049;DHT22;13822;51.568;5.086;2023-05-07T22:50:14;16.40;99.90
26049;DHT22;13822;51.568;5.086;2023-05-07T22:55:17;16.40;99.90
26049;DHT22;13822;51.568;5.086;2023-05-07T23:00:29;16.40;99.90
26049;DHT22;13822;51.568;5.086;2023-05-07T23:05:33;16.30;99.90
26049;DHT22;13822;51.568;5.086;2023-05-07T23:10:45;16.30;99.90
26049;DHT22;13822;51.568;5.086;2023-05-07T23:15:55;16.30;99.90
26049;DHT22;13822;51.568;5.086;2023-05-07T23:21:00;16.20;99.90
26049;DHT22;13822;51.568;5.086;2023-05-07T23:26:05;16.20;99.90
26049;DHT22;13822;51.568;5.086;2023-05-07T23:31:16;16.10;99.90
26049;DHT22;13822;51.568;5.086;2023-05-07T23:36:26;16.10;99.90
26049;DHT22;13822;51.568;5.086;2023-05-07T23:41:37;16.00;99.90
26049;DHT22;13822;51.568;5.086;2023-05-07T23:46:39;15.90;99.90
26049;DHT22;13822;51.568;5.086;2023-05-07T23:51:44;15.90;99.90
26049;DHT22;13822;51.568;5.086;2023-05-07T23:56:53;15.80;99.90
